createdAt,value
2022-10-21T00:01:31.617Z,13.00
2022-10-21T00:03:58.371Z,13.00
2022-10-21T00:06:24.939Z,13.10
2022-10-21T00:08:51.633Z,13.00
2022-10-21T00:11:18.212Z,13.00
2022-10-21T00:13:44.760Z,13.00
2022-10-21T00:16:14.269Z,13.00
2022-10-21T00:18:42.613Z,13.00
2022-10-21T00:21:12.223Z,13.00
2022-10-21T00:23:38.840Z,13.00
2022-10-21T00:26:06.164Z,13.00
2022-10-21T00:28:33.180Z,13.00
2022-10-21T00:31:00.847Z,13.00
2022-10-21T00:33:28.780Z,13.00
2022-10-21T00:36:03.947Z,13.00
2022-10-21T00:38:30.840Z,12.90
2022-10-21T00:40:57.676Z,12.90
2022-10-21T00:43:25.284Z,12.90
2022-10-21T00:46:01.525Z,12.90
2022-10-21T00:48:39.078Z,12.90
2022-10-21T00:51:12.972Z,12.90
2022-10-21T00:53:44.001Z,12.90
2022-10-21T00:56:16.469Z,12.80
2022-10-21T00:58:45.260Z,12.80
2022-10-21T01:01:11.916Z,12.80
2022-10-21T01:03:38.757Z,12.80
2022-10-21T01:06:10.488Z,12.80
2022-10-21T01:08:38.105Z,12.80
2022-10-21T01:11:11.428Z,12.80
2022-10-21T01:13:58.360Z,12.80
2022-10-21T01:16:42.086Z,12.90
2022-10-21T01:19:38.867Z,12.90
2022-10-21T01:22:24.156Z,12.90
2022-10-21T01:25:09.709Z,12.90
2022-10-21T01:27:48.136Z,12.80
2022-10-21T01:30:24.365Z,12.80
2022-10-21T01:33:28.526Z,12.70
2022-10-21T01:36:01.238Z,12.70
2022-10-21T01:38:46.806Z,12.60
2022-10-21T01:41:25.667Z,12.60
2022-10-21T01:44:07.655Z,12.50
2022-10-21T01:46:46.141Z,12.50
2022-10-21T01:49:36.617Z,12.60
2022-10-21T01:52:04.057Z,12.70
2022-10-21T01:54:41.353Z,12.70
2022-10-21T01:57:08.784Z,12.70
2022-10-21T01:59:35.905Z,12.70
2022-10-21T02:02:05.523Z,12.60
2022-10-21T02:04:35.470Z,12.60
2022-10-21T02:07:02.468Z,12.60
2022-10-21T02:09:29.211Z,12.60
2022-10-21T02:11:59.268Z,12.70
2022-10-21T02:14:32.163Z,12.60
2022-10-21T02:17:00.051Z,12.60
2022-10-21T02:19:28.101Z,12.60
2022-10-21T02:21:58.652Z,12.50
2022-10-21T02:24:28.228Z,12.50
2022-10-21T02:26:55.128Z,12.60
2022-10-21T02:29:26.661Z,12.60
2022-10-21T02:32:03.575Z,12.60
2022-10-21T02:34:54.067Z,12.60
2022-10-21T02:37:46.124Z,12.50
2022-10-21T02:40:18.715Z,12.50
2022-10-21T02:42:51.304Z,12.60
2022-10-21T02:45:19.059Z,12.50
2022-10-21T02:47:48.189Z,12.50
2022-10-21T02:50:14.950Z,12.50
2022-10-21T02:52:41.506Z,12.50
2022-10-21T02:55:08.648Z,12.50
2022-10-21T02:57:35.390Z,12.50
2022-10-21T03:00:02.209Z,12.50
2022-10-21T03:02:28.803Z,12.50
2022-10-21T03:04:55.358Z,12.50
2022-10-21T03:07:21.875Z,12.50
2022-10-21T03:09:48.424Z,12.40
2022-10-21T03:12:15.057Z,12.40
2022-10-21T03:14:41.596Z,12.40
2022-10-21T03:17:08.193Z,12.40
2022-10-21T03:19:34.916Z,12.40
2022-10-21T03:22:01.459Z,12.30
2022-10-21T03:24:28.995Z,12.30
2022-10-21T03:26:56.760Z,12.20
2022-10-21T03:29:23.603Z,12.20
2022-10-21T03:31:50.191Z,12.20
2022-10-21T03:34:16.842Z,12.20
2022-10-21T03:36:43.450Z,12.20
2022-10-21T03:39:11.652Z,12.20
2022-10-21T03:41:38.475Z,12.20
2022-10-21T03:44:05.372Z,12.20
2022-10-21T03:46:32.539Z,12.30
2022-10-21T03:49:03.026Z,12.30
2022-10-21T03:51:31.061Z,12.30
2022-10-21T03:53:57.971Z,12.30
2022-10-21T03:56:24.666Z,12.30
2022-10-21T03:58:53.975Z,12.30
2022-10-21T04:01:24.624Z,12.30
2022-10-21T04:03:51.316Z,12.30
2022-10-21T04:06:18.095Z,12.40
2022-10-21T04:08:44.863Z,12.30
2022-10-21T04:11:11.680Z,12.30
2022-10-21T04:13:38.248Z,12.30
2022-10-21T04:16:08.844Z,12.40
2022-10-21T04:18:35.619Z,12.40
2022-10-21T04:21:02.301Z,12.30
2022-10-21T04:23:28.975Z,12.30
2022-10-21T04:25:55.662Z,12.30
2022-10-21T04:28:22.280Z,12.30
2022-10-21T04:30:50.125Z,12.30
2022-10-21T04:33:16.749Z,12.40
2022-10-21T04:35:43.515Z,12.30
2022-10-21T04:38:10.587Z,12.30
2022-10-21T04:40:37.133Z,12.30
2022-10-21T04:43:03.833Z,12.30
2022-10-21T04:45:30.499Z,12.30
2022-10-21T04:47:57.036Z,12.20
2022-10-21T04:50:23.752Z,12.20
2022-10-21T04:52:50.324Z,12.20
2022-10-21T04:55:17.020Z,12.20
2022-10-21T04:57:43.536Z,12.20
2022-10-21T05:00:10.904Z,12.20
2022-10-21T05:02:37.576Z,12.20
2022-10-21T05:05:04.854Z,12.20
2022-10-21T05:07:31.396Z,12.20
2022-10-21T05:09:57.920Z,12.20
2022-10-21T05:12:24.534Z,12.20
2022-10-21T05:14:51.134Z,12.20
2022-10-21T05:17:17.720Z,12.20
2022-10-21T05:19:44.243Z,12.20
2022-10-21T05:22:12.272Z,12.20
2022-10-21T05:24:39.029Z,12.10
2022-10-21T05:27:05.593Z,12.10
2022-10-21T05:29:32.216Z,12.20
2022-10-21T05:31:58.748Z,12.20
2022-10-21T05:34:25.466Z,12.20
2022-10-21T05:36:52.063Z,12.10
2022-10-21T05:39:18.568Z,12.10
2022-10-21T05:41:47.846Z,12.10
2022-10-21T05:44:15.233Z,12.10
2022-10-21T05:46:41.889Z,12.10
2022-10-21T05:49:08.569Z,12.20
2022-10-21T05:51:35.099Z,12.20
2022-10-21T05:54:03.810Z,12.20
2022-10-21T05:56:31.022Z,12.20
2022-10-21T05:58:57.765Z,12.20
2022-10-21T06:01:24.531Z,12.20
2022-10-21T06:03:51.723Z,12.10
2022-10-21T06:06:18.555Z,12.10
2022-10-21T06:08:45.163Z,12.10
2022-10-21T06:11:15.183Z,12.10
2022-10-21T06:13:42.643Z,12.20
2022-10-21T06:16:10.153Z,12.20
2022-10-21T06:18:37.615Z,12.20
2022-10-21T06:21:04.896Z,12.20
2022-10-21T06:23:31.791Z,12.20
2022-10-21T06:26:05.605Z,12.20
2022-10-21T06:28:34.575Z,12.20
2022-10-21T06:31:01.444Z,12.30
2022-10-21T06:33:28.535Z,12.30
2022-10-21T06:35:55.813Z,12.30
2022-10-21T06:38:23.178Z,12.20
2022-10-21T06:40:49.776Z,12.30
2022-10-21T06:43:19.492Z,12.30
2022-10-21T06:45:46.206Z,12.30
2022-10-21T06:48:13.664Z,12.40
2022-10-21T06:50:40.413Z,12.40
2022-10-21T06:53:07.316Z,12.40
2022-10-21T06:55:33.946Z,12.40
2022-10-21T06:58:00.476Z,12.40
2022-10-21T07:00:27.211Z,12.50
2022-10-21T07:02:53.862Z,12.50
2022-10-21T07:05:20.614Z,12.50
2022-10-21T07:07:47.229Z,12.50
2022-10-21T07:10:13.760Z,12.50
2022-10-21T07:12:40.334Z,12.50
2022-10-21T07:15:07.398Z,12.60
2022-10-21T07:17:33.914Z,12.60
2022-10-21T07:20:00.530Z,12.60
2022-10-21T07:22:27.109Z,12.70
2022-10-21T07:24:53.772Z,12.70
2022-10-21T07:27:20.470Z,12.80
2022-10-21T07:29:47.314Z,12.80
2022-10-21T07:32:13.908Z,12.80
2022-10-21T07:34:40.639Z,12.80
2022-10-21T07:37:07.312Z,12.90
2022-10-21T07:39:34.963Z,12.90
2022-10-21T07:42:01.755Z,13.00
2022-10-21T07:44:28.460Z,13.00
2022-10-21T07:46:55.170Z,13.10
2022-10-21T07:49:22.929Z,13.10
2022-10-21T07:51:50.449Z,13.10
2022-10-21T07:54:18.235Z,13.10
2022-10-21T07:56:47.588Z,13.10
2022-10-21T07:59:15.434Z,13.20
2022-10-21T08:01:47.317Z,13.20
2022-10-21T08:04:17.847Z,13.30
2022-10-21T08:06:46.323Z,13.30
2022-10-21T08:09:13.761Z,13.30
2022-10-21T08:11:40.632Z,13.40
2022-10-21T08:14:08.813Z,13.40
2022-10-21T08:16:36.300Z,13.50
2022-10-21T08:19:03.817Z,13.50
2022-10-21T08:21:31.163Z,13.50
2022-10-21T08:23:58.797Z,13.50
2022-10-21T08:26:25.375Z,13.60
2022-10-21T08:28:52.202Z,13.60
2022-10-21T08:31:21.508Z,13.70
2022-10-21T08:33:49.037Z,13.70
2022-10-21T08:36:21.814Z,13.70
2022-10-21T08:38:49.183Z,13.70
2022-10-21T08:41:31.912Z,13.70
2022-10-21T08:44:22.707Z,13.80
2022-10-21T08:46:58.147Z,13.80
2022-10-21T08:49:30.949Z,13.80
2022-10-21T08:52:05.733Z,13.90
2022-10-21T08:54:59.577Z,13.90
2022-10-21T08:57:27.274Z,14.00
2022-10-21T08:59:54.539Z,14.00
2022-10-21T09:02:43.502Z,14.00
2022-10-21T09:08:02.267Z,14.00
2022-10-21T09:10:39.193Z,14.10
2022-10-21T09:13:32.812Z,14.10
2022-10-21T09:16:05.735Z,14.10
2022-10-21T09:18:49.280Z,14.20
2022-10-21T09:21:27.976Z,14.20
2022-10-21T09:24:18.274Z,14.30
2022-10-21T09:26:48.749Z,14.30
2022-10-21T09:29:15.469Z,14.40
2022-10-21T09:31:43.987Z,14.40
2022-10-21T09:34:33.075Z,14.40
2022-10-21T09:37:01.060Z,14.50
2022-10-21T09:39:38.795Z,14.50
2022-10-21T09:42:18.154Z,14.50
2022-10-21T09:44:53.360Z,14.60
2022-10-21T09:47:24.356Z,14.60
2022-10-21T09:50:13.306Z,14.60
2022-10-21T09:52:40.816Z,14.60
2022-10-21T09:55:13.718Z,14.60
2022-10-21T09:57:58.128Z,14.60
2022-10-21T10:00:46.815Z,14.60
2022-10-21T10:03:28.718Z,14.60
2022-10-21T10:05:55.308Z,14.60
2022-10-21T10:08:29.131Z,14.60
2022-10-21T10:11:22.226Z,14.60
2022-10-21T10:13:51.317Z,14.60
2022-10-21T10:16:17.914Z,14.60
2022-10-21T10:18:45.512Z,14.70
2022-10-21T10:21:18.147Z,14.70
2022-10-21T10:23:47.739Z,14.70
2022-10-21T10:26:20.594Z,14.70
2022-10-21T10:29:22.463Z,14.70
2022-10-21T10:31:56.708Z,14.70
2022-10-21T10:34:38.549Z,14.80
2022-10-21T10:37:17.393Z,14.80
2022-10-21T10:39:48.017Z,14.80
2022-10-21T10:42:24.912Z,14.80
2022-10-21T10:44:55.898Z,14.90
2022-10-21T10:47:30.452Z,15.00
2022-10-21T10:49:57.337Z,15.00
2022-10-21T10:52:25.408Z,15.00
2022-10-21T10:55:16.234Z,15.00
2022-10-21T10:58:06.122Z,15.10
2022-10-21T11:00:42.491Z,15.20
2022-10-21T11:03:16.855Z,15.20
2022-10-21T11:05:51.040Z,15.20
2022-10-21T11:08:41.257Z,15.30
2022-10-21T11:11:15.049Z,15.30
2022-10-21T11:13:42.378Z,15.40
2022-10-21T11:17:00.672Z,15.40
2022-10-21T11:19:40.024Z,15.40
2022-10-21T11:22:21.458Z,15.50
2022-10-21T11:25:13.280Z,15.50
2022-10-21T11:28:13.316Z,15.50
2022-10-21T11:31:15.094Z,15.50
2022-10-21T11:34:08.451Z,15.50
2022-10-21T11:37:23.801Z,15.60
2022-10-21T11:40:05.566Z,15.60
2022-10-21T11:43:05.529Z,15.70
2022-10-21T11:46:07.485Z,15.70
2022-10-21T11:48:55.531Z,15.80
2022-10-21T11:51:40.628Z,15.90
2022-10-21T11:54:35.568Z,15.90
2022-10-21T11:57:14.888Z,16.00
2022-10-21T12:00:00.325Z,16.10
2022-10-21T12:02:45.974Z,16.30
2022-10-21T12:05:32.733Z,16.30
2022-10-21T12:08:15.376Z,16.30
2022-10-21T12:11:11.938Z,16.40
2022-10-21T12:13:57.580Z,16.40
2022-10-21T12:16:26.530Z,16.40
2022-10-21T12:19:01.131Z,16.50
2022-10-21T12:21:29.796Z,16.50
2022-10-21T12:24:05.310Z,16.60
2022-10-21T12:29:05.580Z,16.80
2022-10-21T12:31:37.435Z,17.00
2022-10-21T12:34:05.471Z,17.30
2022-10-21T12:36:48.570Z,17.60
2022-10-21T12:39:33.372Z,18.00
2022-10-21T12:42:13.548Z,18.00
2022-10-21T12:44:49.166Z,18.00
2022-10-21T12:47:28.815Z,17.90
2022-10-21T12:50:17.758Z,17.70
2022-10-21T12:52:45.959Z,17.70
2022-10-21T12:55:27.216Z,17.60
2022-10-21T12:58:00.414Z,17.50
2022-10-21T13:00:29.816Z,17.50
2022-10-21T13:02:59.456Z,17.60
2022-10-21T13:05:38.431Z,18.30
2022-10-21T13:08:20.005Z,18.70
2022-10-21T13:11:05.189Z,18.90
2022-10-21T13:13:40.908Z,18.80
2022-10-21T13:16:19.766Z,18.50
2022-10-21T13:18:52.507Z,18.70
2022-10-21T13:21:38.906Z,18.50
2022-10-21T13:24:30.179Z,18.30
2022-10-21T13:27:03.441Z,18.00
2022-10-21T13:29:46.929Z,17.90
2022-10-21T13:32:19.389Z,17.90
2022-10-21T13:34:55.155Z,17.80
2022-10-21T13:37:34.527Z,17.70
2022-10-21T13:40:04.897Z,17.70
2022-10-21T13:42:36.670Z,17.70
2022-10-21T13:45:17.878Z,18.00
2022-10-21T13:47:45.777Z,18.60
2022-10-21T13:50:18.696Z,19.10
2022-10-21T13:52:45.396Z,18.80
2022-10-21T13:55:21.985Z,18.50
2022-10-21T13:57:50.531Z,18.20
2022-10-21T14:00:26.550Z,18.00
2022-10-21T14:03:05.225Z,17.90
2022-10-21T14:05:36.651Z,17.70
2022-10-21T14:08:05.464Z,17.70
2022-10-21T14:10:32.325Z,17.60
2022-10-21T14:15:41.796Z,17.50
2022-10-21T14:18:08.608Z,17.40
2022-10-21T14:20:37.808Z,17.40
2022-10-21T14:23:08.277Z,17.30
2022-10-21T14:25:35.149Z,17.20
2022-10-21T14:28:04.205Z,17.20
2022-10-21T14:30:33.411Z,17.20
2022-10-21T14:33:04.006Z,17.20
2022-10-21T14:35:31.179Z,17.10
2022-10-21T14:38:00.400Z,17.00
2022-10-21T14:40:34.486Z,17.00
2022-10-21T14:43:18.880Z,17.00
2022-10-21T14:45:53.699Z,17.00
2022-10-21T14:48:28.130Z,17.00
2022-10-21T14:51:00.954Z,16.90
2022-10-21T14:53:33.194Z,17.00
2022-10-21T14:56:02.933Z,16.90
2022-10-21T14:58:34.433Z,16.90
2022-10-21T15:01:16.475Z,16.90
2022-10-21T15:03:46.680Z,17.00
2022-10-21T15:06:17.205Z,16.90
2022-10-21T15:08:56.090Z,16.90
2022-10-21T15:11:38.856Z,16.90
2022-10-21T15:14:16.912Z,16.90
2022-10-21T15:16:50.488Z,16.90
2022-10-21T15:19:37.844Z,16.80
2022-10-21T15:22:05.768Z,16.80
2022-10-21T15:24:43.889Z,16.80
2022-10-21T15:27:32.821Z,16.80
2022-10-21T15:30:34.885Z,16.70
2022-10-21T15:33:01.582Z,16.70
2022-10-21T15:35:28.271Z,16.70
2022-10-21T15:37:55.088Z,16.60
2022-10-21T15:40:22.832Z,16.60
2022-10-21T15:42:49.879Z,16.60
2022-10-21T15:45:22.005Z,16.60
2022-10-21T15:47:53.237Z,16.50
2022-10-21T15:50:22.460Z,16.50
2022-10-21T15:52:49.368Z,16.50
2022-10-21T15:55:16.123Z,16.40
2022-10-21T15:57:43.225Z,16.40
2022-10-21T16:00:19.548Z,16.40
2022-10-21T16:02:47.958Z,16.40
2022-10-21T16:05:15.510Z,16.30
2022-10-21T16:07:42.915Z,16.30
2022-10-21T16:10:24.097Z,16.30
2022-10-21T16:12:50.816Z,16.20
2022-10-21T16:15:19.101Z,16.10
2022-10-21T16:17:49.285Z,16.10
2022-10-21T16:20:19.414Z,16.00
2022-10-21T16:22:46.119Z,16.00
2022-10-21T16:25:13.800Z,15.90
2022-10-21T16:27:55.818Z,16.00
2022-10-21T16:30:25.025Z,16.00
2022-10-21T16:32:52.428Z,16.00
2022-10-21T16:35:20.984Z,16.00
2022-10-21T16:37:48.635Z,16.00
2022-10-21T16:40:18.471Z,15.90
2022-10-21T16:42:45.257Z,15.90
2022-10-21T16:45:13.227Z,15.90
2022-10-21T16:47:47.849Z,15.90
2022-10-21T16:50:21.495Z,15.90
2022-10-21T16:52:48.199Z,15.80
2022-10-21T16:55:16.140Z,15.90
2022-10-21T16:57:43.274Z,15.80
2022-10-21T17:00:10.881Z,15.80
2022-10-21T17:02:40.405Z,15.80
2022-10-21T17:05:08.090Z,15.70
2022-10-21T17:07:34.712Z,15.70
2022-10-21T17:10:02.013Z,15.70
2022-10-21T17:12:31.224Z,15.60
2022-10-21T17:14:58.300Z,15.60
2022-10-21T17:17:25.168Z,15.60
2022-10-21T17:19:52.827Z,15.60
2022-10-21T17:22:20.073Z,15.60
2022-10-21T17:24:47.728Z,15.60
2022-10-21T17:27:18.739Z,15.60
2022-10-21T17:29:46.485Z,15.60
2022-10-21T17:32:13.336Z,15.50
2022-10-21T17:34:40.984Z,15.50
2022-10-21T17:37:09.365Z,15.50
2022-10-21T17:39:36.193Z,15.50
2022-10-21T17:42:03.630Z,15.50
2022-10-21T17:44:30.572Z,15.40
2022-10-21T17:46:57.289Z,15.40
2022-10-21T17:49:26.129Z,15.40
2022-10-21T17:51:53.030Z,15.40
2022-10-21T17:54:24.131Z,15.40
2022-10-21T17:56:56.810Z,15.40
2022-10-21T17:59:23.827Z,15.30
2022-10-21T18:01:50.564Z,15.40
2022-10-21T18:04:17.272Z,15.40
2022-10-21T18:06:44.139Z,15.40
2022-10-21T18:09:11.142Z,15.30
2022-10-21T18:11:37.942Z,15.40
2022-10-21T18:14:04.896Z,15.30
2022-10-21T18:16:31.967Z,15.30
2022-10-21T18:19:01.898Z,15.20
2022-10-21T18:21:30.373Z,15.20
2022-10-21T18:23:57.012Z,15.20
2022-10-21T18:26:26.787Z,15.20
2022-10-21T18:28:57.124Z,15.20
2022-10-21T18:31:26.076Z,15.10
2022-10-21T18:33:54.887Z,15.10
2022-10-21T18:36:22.102Z,15.20
2022-10-21T18:38:48.890Z,15.20
2022-10-21T18:41:20.078Z,15.20
2022-10-21T18:43:56.336Z,15.20
2022-10-21T18:46:23.497Z,15.20
2022-10-21T18:48:50.666Z,15.20
2022-10-21T18:51:18.956Z,15.10
2022-10-21T18:53:49.885Z,15.10
2022-10-21T18:56:20.205Z,15.00
2022-10-21T18:58:46.876Z,14.90
2022-10-21T19:01:15.162Z,14.90
2022-10-21T19:03:42.422Z,14.90
2022-10-21T19:06:31.851Z,14.90
2022-10-21T19:09:01.033Z,14.80
2022-10-21T19:11:28.386Z,14.80
2022-10-21T19:13:55.303Z,14.80
2022-10-21T19:16:22.451Z,14.80
2022-10-21T19:18:49.184Z,14.70
2022-10-21T19:21:20.109Z,14.70
2022-10-21T19:23:47.112Z,14.60
2022-10-21T19:26:14.468Z,14.60
2022-10-21T19:28:41.172Z,14.60
2022-10-21T19:31:08.482Z,14.60
2022-10-21T19:33:35.155Z,14.50
2022-10-21T19:36:02.693Z,14.50
2022-10-21T19:38:45.034Z,14.50
2022-10-21T19:41:17.906Z,14.50
2022-10-21T19:43:44.995Z,14.50
2022-10-21T19:46:17.445Z,14.50
2022-10-21T19:48:46.693Z,14.40
2022-10-21T19:51:15.402Z,14.50
2022-10-21T19:53:43.826Z,14.50
2022-10-21T19:56:11.038Z,14.40
2022-10-21T19:58:43.449Z,14.40
2022-10-21T20:01:12.790Z,14.40
2022-10-21T20:03:41.329Z,14.40
2022-10-21T20:06:10.166Z,14.40
2022-10-21T20:08:39.755Z,14.40
2022-10-21T20:11:12.939Z,14.30
2022-10-21T20:13:40.227Z,14.30
2022-10-21T20:16:07.559Z,14.30
2022-10-21T20:18:34.404Z,14.30
2022-10-21T20:21:06.028Z,14.40
2022-10-21T20:23:32.763Z,14.40
2022-10-21T20:25:59.525Z,14.40
2022-10-21T20:28:27.344Z,14.40
2022-10-21T20:30:58.359Z,14.30
2022-10-21T20:33:25.452Z,14.30
2022-10-21T20:35:52.433Z,14.30
2022-10-21T20:38:19.173Z,14.20
2022-10-21T20:40:58.392Z,14.30
2022-10-21T20:43:25.498Z,14.30
2022-10-21T20:45:52.112Z,14.20
2022-10-21T20:48:18.812Z,14.30
2022-10-21T20:50:45.607Z,14.30
2022-10-21T20:53:12.132Z,14.20
2022-10-21T20:55:38.770Z,14.30
2022-10-21T20:58:05.392Z,14.20
2022-10-21T21:00:32.309Z,14.20
2022-10-21T21:02:59.995Z,14.20
2022-10-21T21:05:26.732Z,14.20
2022-10-21T21:07:53.462Z,14.10
2022-10-21T21:10:20.168Z,14.10
2022-10-21T21:12:46.882Z,14.10
2022-10-21T21:15:13.620Z,14.10
2022-10-21T21:17:40.208Z,14.00
2022-10-21T21:20:07.488Z,14.10
2022-10-21T21:22:36.496Z,14.00
2022-10-21T21:25:04.182Z,14.00
2022-10-21T21:27:30.872Z,14.10
2022-10-21T21:29:57.852Z,14.00
2022-10-21T21:32:24.706Z,14.10
2022-10-21T21:34:55.261Z,14.10
2022-10-21T21:37:22.764Z,14.00
2022-10-21T21:39:49.437Z,14.00
2022-10-21T21:42:16.140Z,14.00
2022-10-21T21:44:42.827Z,14.00
2022-10-21T21:47:09.807Z,14.00
2022-10-21T21:49:36.339Z,14.10
2022-10-21T21:52:02.991Z,14.00
2022-10-21T21:54:29.612Z,14.00
2022-10-21T21:57:26.430Z,14.10
2022-10-21T21:59:44.989Z,14.10
2022-10-21T22:02:11.546Z,14.10
2022-10-21T22:04:40.322Z,14.10
2022-10-21T22:07:06.930Z,14.00
2022-10-21T22:09:33.546Z,14.00
2022-10-21T22:12:01.116Z,14.00
2022-10-21T22:14:27.676Z,14.00
2022-10-21T22:16:54.237Z,13.90
2022-10-21T22:19:21.244Z,13.90
2022-10-21T22:21:47.889Z,13.90
2022-10-21T22:24:14.407Z,13.90
2022-10-21T22:26:41.061Z,13.90
2022-10-21T22:29:07.644Z,13.90
2022-10-21T22:31:34.209Z,13.90
2022-10-21T22:34:01.138Z,14.00
2022-10-21T22:36:28.418Z,14.00
2022-10-21T22:38:55.023Z,14.00
2022-10-21T22:41:21.718Z,14.00
2022-10-21T22:43:48.457Z,13.90
2022-10-21T22:46:33.549Z,14.00
2022-10-21T22:49:01.019Z,14.00
2022-10-21T22:51:27.605Z,14.00
2022-10-21T22:53:56.646Z,14.00
2022-10-21T22:56:25.493Z,14.00
2022-10-21T22:58:52.168Z,14.00
2022-10-21T23:01:19.500Z,14.00
2022-10-21T23:03:46.037Z,14.00
2022-10-21T23:06:12.579Z,14.00
2022-10-21T23:08:39.224Z,14.00
2022-10-21T23:11:05.818Z,13.90
2022-10-21T23:13:32.443Z,13.90
2022-10-21T23:15:58.992Z,13.90
2022-10-21T23:18:25.716Z,13.90
2022-10-21T23:20:52.252Z,13.90
2022-10-21T23:23:18.820Z,13.90
2022-10-21T23:25:45.411Z,13.90
2022-10-21T23:28:12.151Z,13.90
2022-10-21T23:30:40.390Z,13.90
2022-10-21T23:33:06.938Z,13.90
2022-10-21T23:35:33.692Z,13.90
2022-10-21T23:38:00.455Z,13.90
2022-10-21T23:40:27.737Z,13.90
2022-10-21T23:42:55.049Z,13.90
2022-10-21T23:45:21.863Z,13.90
2022-10-21T23:47:48.483Z,14.00
2022-10-21T23:50:15.456Z,14.00
2022-10-21T23:52:42.092Z,14.00
2022-10-21T23:55:09.144Z,14.00
2022-10-21T23:57:35.872Z,14.00
